Pampa Del Castillo, Argentina
Current Conditions -  °F | °C
As of 7:00 AM on Saturday 29 Nov 2014 (Local Time) from SAVC Reporting Station
Light Rain Light Rain  
Wind Chill: 41°   Ceiling: 8000
Heat Index: 46°   Visibility: 6mi
Dew Point: 39°   Wind: 12mph
Humidity: 76%   Direction: 250°WSW
Pressure: 29.88"   Gusts: NA
Location:  45.8°S, 68.04°W
Report Text: SAVC 291000Z 25010KT 9999 -RA SCT030 BKN080 08/04 Q1012
Loading
Personal Weather Stations






























Interactive Weather Map New forecast layout! Learn more

10-Day Weather Forecast

Advertisements
Track Severe Weather on mobile